Time;durP1;ratioP1;P1;durP2;ratioP2;P2;SDS_P1;SDS_P2;PMS_P1;PMS_P2;Temp;Humidity;BMP_temperature;BMP_pressure;BME280_temperature;BME280_humidity;BME280_pressure;Samples;Min_cycle;Max_cycle;Signal;HPM_P1;HPM_P2
2023/08/25 00:01:11;;;;;;;;;;;19.20;99.90;;;;;;5068948;28;19936;-71
2023/08/25 00:03:36;;;;;;;;;;;19.30;99.90;;;;;;5069691;28;19928;-70
2023/08/25 00:06:02;;;;;;;;;;;19.30;99.90;;;;;;5065406;28;19952;-70
2023/08/25 00:08:28;;;;;;;;;;;19.40;99.90;;;;;;5069254;28;19967;-70
2023/08/25 00:10:53;;;;;;;;;;;19.40;99.90;;;;;;5051791;28;19932;-70
2023/08/25 00:13:19;;;;;;;;;;;19.30;99.90;;;;;;5049276;28;19927;-70
2023/08/25 00:15:45;;;;;;;;;;;19.30;99.90;;;;;;5045703;28;20054;-70
2023/08/25 00:18:11;;;;;;;;;;;19.20;99.90;;;;;;5043922;28;20079;-70
2023/08/25 00:20:36;;;;;;;;;;;19.10;99.90;;;;;;5064396;28;19952;-69
2023/08/25 00:23:02;;;;;;;;;;;19.00;99.90;;;;;;5069442;28;19934;-69
2023/08/25 00:25:29;;;;;;;;;;;19.10;99.90;;;;;;5054219;28;20423;-68
2023/08/25 00:27:54;;;;;;;;;;;19.00;99.90;;;;;;5059141;28;19942;-68
2023/08/25 00:30:20;;;;;;;;;;;18.90;99.90;;;;;;5067675;28;19933;-68
2023/08/25 00:32:45;;;;;;;;;;;18.80;99.90;;;;;;5061898;28;19927;-68
2023/08/25 00:35:11;;;;;;;;;;;18.80;99.90;;;;;;5065450;28;20014;-68
2023/08/25 00:37:36;;;;;;;;;;;18.80;99.90;;;;;;5044064;28;20000;-68
2023/08/25 00:40:02;;;;;;;;;;;18.80;99.90;;;;;;5047796;28;19939;-67
2023/08/25 00:42:28;;;;;;;;;;;18.80;99.90;;;;;;5069571;28;20262;-68
2023/08/25 00:44:53;;;;;;;;;;;18.70;99.90;;;;;;5066959;28;20649;-68
2023/08/25 00:47:19;;;;;;;;;;;18.70;99.90;;;;;;5067154;28;19997;-69
2023/08/25 00:49:45;;;;;;;;;;;18.70;99.90;;;;;;5072144;28;19925;-69
2023/08/25 00:52:11;;;;;;;;;;;18.70;99.90;;;;;;5062223;28;19918;-69
2023/08/25 00:54:37;;;;;;;;;;;18.70;99.90;;;;;;5064562;28;19940;-69
2023/08/25 00:57:03;;;;;;;;;;;18.70;99.90;;;;;;5060913;28;20031;-69
2023/08/25 00:59:29;;;;;;;;;;;18.70;99.90;;;;;;5065160;28;19981;-69
2023/08/25 01:01:55;;;;;;;;;;;18.70;99.90;;;;;;5058697;28;19929;-69
2023/08/25 01:04:21;;;;;;;;;;;18.70;99.90;;;;;;5062652;28;19989;-66
2023/08/25 01:06:48;;;;;;;;;;;18.70;99.90;;;;;;5046169;28;19930;-66
2023/08/25 01:09:13;;;;;;;;;;;18.70;99.90;;;;;;5067762;28;19949;-66
2023/08/25 01:11:39;;;;;;;;;;;18.70;99.90;;;;;;5064860;28;19917;-67
2023/08/25 01:14:11;;;;;;;;;;;18.70;99.90;;;;;;5065879;28;20002;-67
2023/08/25 01:16:48;;;;;;;;;;;18.70;99.90;;;;;;5055691;28;19956;-66
2023/08/25 01:19:26;;;;;;;;;;;18.70;99.90;;;;;;5068815;28;20312;-66
2023/08/25 01:21:55;;;;;;;;;;;18.60;99.90;;;;;;5061847;28;19932;-66
2023/08/25 01:24:28;;;;;;;;;;;18.60;99.90;;;;;;5051094;28;19933;-66
2023/08/25 01:26:54;;;;;;;;;;;18.60;99.90;;;;;;5015539;28;20069;-67
2023/08/25 01:29:20;;;;;;;;;;;18.50;99.90;;;;;;5055620;28;20016;-67
2023/08/25 01:31:46;;;;;;;;;;;18.60;99.90;;;;;;5049170;28;19957;-67
2023/08/25 01:34:13;;;;;;;;;;;18.50;99.90;;;;;;5054342;28;19946;-68
2023/08/25 01:37:05;;;;;;;;;;;18.40;99.90;;;;;;5058759;28;19926;-68
2023/08/25 01:39:31;;;;;;;;;;;18.30;99.90;;;;;;5057533;28;19943;-69
2023/08/25 01:41:59;;;;;;;;;;;18.30;99.90;;;;;;5060306;28;21302;-69
2023/08/25 01:44:27;;;;;;;;;;;18.40;99.90;;;;;;5062470;28;19933;-69
2023/08/25 01:46:57;;;;;;;;;;;18.50;99.90;;;;;;5059778;28;20146;-70
2023/08/25 01:49:23;;;;;;;;;;;18.40;99.90;;;;;;5056990;28;19928;-70
2023/08/25 01:51:49;;;;;;;;;;;18.30;99.90;;;;;;5063630;28;19966;-70
2023/08/25 01:54:15;;;;;;;;;;;18.30;99.90;;;;;;5067556;28;19927;-70
2023/08/25 01:56:40;;;;;;;;;;;18.30;99.90;;;;;;5052705;28;21160;-70
2023/08/25 01:59:06;;;;;;;;;;;18.30;99.90;;;;;;5062100;28;19952;-68
2023/08/25 02:01:31;;;;;;;;;;;18.20;99.90;;;;;;5065632;28;19927;-70
2023/08/25 02:03:57;;;;;;;;;;;18.10;99.90;;;;;;5070312;28;19980;-70
2023/08/25 02:06:22;;;;;;;;;;;18.10;99.90;;;;;;5064225;28;20402;-70
2023/08/25 02:08:48;;;;;;;;;;;18.10;99.90;;;;;;5065462;28;19929;-70
2023/08/25 02:11:13;;;;;;;;;;;18.20;99.90;;;;;;5066074;28;19934;-69
2023/08/25 02:13:39;;;;;;;;;;;18.10;99.90;;;;;;5066800;28;21357;-70
2023/08/25 02:16:04;;;;;;;;;;;18.00;99.90;;;;;;5049721;28;19990;-70
2023/08/25 02:18:30;;;;;;;;;;;18.00;99.90;;;;;;5064364;28;23029;-70
2023/08/25 02:20:56;;;;;;;;;;;18.00;99.90;;;;;;5060227;28;19935;-70
2023/08/25 02:23:21;;;;;;;;;;;17.90;99.90;;;;;;5067660;28;20383;-69
2023/08/25 02:25:47;;;;;;;;;;;17.80;99.90;;;;;;5068050;28;19925;-70
2023/08/25 02:28:13;;;;;;;;;;;17.70;99.90;;;;;;5054895;28;19927;-70
2023/08/25 02:30:39;;;;;;;;;;;17.80;99.90;;;;;;5069680;28;20393;-70
2023/08/25 02:33:04;;;;;;;;;;;17.90;99.90;;;;;;5053506;28;19933;-70
2023/08/25 02:35:30;;;;;;;;;;;18.00;99.90;;;;;;5065371;28;20025;-70
2023/08/25 02:37:57;;;;;;;;;;;18.00;99.90;;;;;;5065592;28;19960;-69
2023/08/25 02:40:23;;;;;;;;;;;18.00;99.90;;;;;;5059999;28;19942;-70
2023/08/25 02:42:49;;;;;;;;;;;17.90;99.90;;;;;;5074375;28;19923;-70
2023/08/25 02:45:14;;;;;;;;;;;17.90;99.90;;;;;;5054219;28;20026;-70
2023/08/25 02:47:40;;;;;;;;;;;18.00;99.90;;;;;;5068087;28;19927;-70
2023/08/25 02:50:05;;;;;;;;;;;17.90;99.90;;;;;;5066041;28;23838;-70
2023/08/25 02:52:31;;;;;;;;;;;17.80;99.90;;;;;;5048878;28;22198;-70
2023/08/25 02:54:56;;;;;;;;;;;17.70;99.90;;;;;;5065544;28;19950;-70
2023/08/25 02:57:22;;;;;;;;;;;17.70;99.90;;;;;;5059640;28;19930;-70
2023/08/25 02:59:47;;;;;;;;;;;17.60;99.90;;;;;;5062491;28;19937;-69
2023/08/25 03:02:13;;;;;;;;;;;17.60;99.90;;;;;;5052246;28;20280;-69
2023/08/25 03:04:38;;;;;;;;;;;17.60;99.90;;;;;;5065679;28;20071;-69
2023/08/25 03:07:04;;;;;;;;;;;17.70;99.90;;;;;;5057425;28;20384;-70
2023/08/25 03:09:29;;;;;;;;;;;17.80;99.90;;;;;;5062543;28;19929;-70
2023/08/25 03:11:55;;;;;;;;;;;17.90;99.90;;;;;;5063235;28;20361;-70
2023/08/25 03:14:21;;;;;;;;;;;18.00;99.90;;;;;;5065169;28;19931;-70
2023/08/25 03:16:46;;;;;;;;;;;18.10;99.90;;;;;;5062664;28;20499;-69
2023/08/25 03:19:12;;;;;;;;;;;18.20;99.90;;;;;;5061050;28;19985;-70
2023/08/25 03:21:37;;;;;;;;;;;18.30;99.90;;;;;;5058801;28;20022;-70
2023/08/25 03:24:03;;;;;;;;;;;18.40;99.90;;;;;;5072177;28;20641;-70
2023/08/25 03:26:28;;;;;;;;;;;18.50;99.90;;;;;;5072818;28;19940;-70
2023/08/25 03:28:54;;;;;;;;;;;18.60;99.90;;;;;;5069345;28;20659;-70
2023/08/25 03:31:20;;;;;;;;;;;18.60;99.90;;;;;;5065480;28;19959;-70
2023/08/25 03:33:45;;;;;;;;;;;18.50;99.90;;;;;;5071879;28;20460;-70
2023/08/25 03:36:11;;;;;;;;;;;18.60;99.90;;;;;;5065846;28;20349;-70
2023/08/25 03:38:36;;;;;;;;;;;18.60;99.90;;;;;;5068979;28;20076;-70
2023/08/25 03:41:02;;;;;;;;;;;18.50;99.90;;;;;;5060766;28;19930;-70
2023/08/25 03:43:27;;;;;;;;;;;18.40;99.90;;;;;;5073521;28;19919;-70
2023/08/25 03:45:53;;;;;;;;;;;18.30;99.90;;;;;;5057301;28;20384;-70
2023/08/25 03:48:18;;;;;;;;;;;18.30;99.90;;;;;;5069701;28;19959;-70
2023/08/25 03:50:47;;;;;;;;;;;18.30;99.90;;;;;;5071975;28;20368;-70
2023/08/25 03:53:13;;;;;;;;;;;18.40;99.90;;;;;;5074519;28;19988;-70
2023/08/25 03:55:38;;;;;;;;;;;18.50;99.90;;;;;;5069655;28;19933;-70
2023/08/25 03:58:04;;;;;;;;;;;18.40;99.90;;;;;;5060006;28;19972;-69
2023/08/25 04:00:29;;;;;;;;;;;18.40;99.90;;;;;;5067342;28;20394;-69
2023/08/25 04:02:55;;;;;;;;;;;18.30;99.90;;;;;;5072394;28;19937;-69
2023/08/25 04:05:20;;;;;;;;;;;18.40;99.90;;;;;;5074475;28;19975;-69
2023/08/25 04:07:46;;;;;;;;;;;18.50;99.90;;;;;;5074128;28;20555;-68
2023/08/25 04:10:11;;;;;;;;;;;18.60;99.90;;;;;;5073590;28;19928;-67
2023/08/25 04:12:37;;;;;;;;;;;18.80;99.90;;;;;;5068739;28;20064;-67
2023/08/25 04:15:03;;;;;;;;;;;18.90;99.90;;;;;;5073252;28;19958;-68
2023/08/25 04:17:30;;;;;;;;;;;19.10;99.90;;;;;;5068459;28;19947;-68
2023/08/25 04:19:55;;;;;;;;;;;19.20;99.90;;;;;;5052251;28;19939;-67
2023/08/25 04:22:21;;;;;;;;;;;19.30;99.90;;;;;;5062701;28;19982;-67
2023/08/25 04:24:47;;;;;;;;;;;19.40;99.90;;;;;;5067779;28;19938;-67
2023/08/25 04:27:12;;;;;;;;;;;19.50;99.90;;;;;;5074058;28;19916;-67
2023/08/25 04:29:38;;;;;;;;;;;19.60;99.90;;;;;;5071728;28;20698;-67
2023/08/25 04:32:03;;;;;;;;;;;19.60;99.90;;;;;;5061859;28;22045;-67
2023/08/25 04:34:29;;;;;;;;;;;19.60;99.90;;;;;;5069521;28;19941;-68
2023/08/25 04:36:54;;;;;;;;;;;19.50;99.90;;;;;;5070055;28;19932;-64
2023/08/25 04:39:20;;;;;;;;;;;19.50;99.90;;;;;;5055508;28;19962;-67
2023/08/25 04:41:45;;;;;;;;;;;19.50;99.90;;;;;;5059439;28;19977;-68
2023/08/25 04:44:11;;;;;;;;;;;19.60;99.90;;;;;;5066418;28;19954;-67
2023/08/25 04:46:36;;;;;;;;;;;19.60;99.90;;;;;;5053895;28;19935;-68
2023/08/25 04:49:02;;;;;;;;;;;19.70;99.90;;;;;;5059092;28;19927;-67
2023/08/25 04:51:28;;;;;;;;;;;19.70;99.90;;;;;;5059830;28;19923;-67
2023/08/25 04:53:53;;;;;;;;;;;19.80;99.90;;;;;;5055878;28;20520;-67
2023/08/25 04:56:19;;;;;;;;;;;19.80;99.90;;;;;;5060117;28;19922;-68
2023/08/25 04:58:44;;;;;;;;;;;19.80;99.90;;;;;;5060890;28;19949;-67
2023/08/25 05:01:10;;;;;;;;;;;19.90;99.90;;;;;;5060639;28;19928;-67
2023/08/25 05:03:35;;;;;;;;;;;20.00;99.90;;;;;;5057286;28;20031;-68
2023/08/25 05:06:01;;;;;;;;;;;20.00;99.90;;;;;;5061217;28;19924;-68
2023/08/25 05:08:26;;;;;;;;;;;20.10;99.90;;;;;;5050743;28;20430;-68
2023/08/25 05:10:52;;;;;;;;;;;20.20;99.90;;;;;;5052852;28;20015;-67
2023/08/25 05:13:17;;;;;;;;;;;20.20;99.90;;;;;;5059891;28;19930;-68
2023/08/25 05:15:43;;;;;;;;;;;20.20;99.90;;;;;;5061038;28;20808;-68
2023/08/25 05:18:08;;;;;;;;;;;20.20;99.90;;;;;;5072254;28;20011;-67
2023/08/25 05:20:34;;;;;;;;;;;20.30;99.90;;;;;;5071023;28;19931;-70
2023/08/25 05:23:00;;;;;;;;;;;20.40;99.90;;;;;;5072307;28;20053;-70
2023/08/25 05:25:25;;;;;;;;;;;20.40;99.90;;;;;;5068392;28;19925;-70
2023/08/25 05:27:51;;;;;;;;;;;20.40;99.90;;;;;;5069034;28;20073;-71
2023/08/25 05:30:16;;;;;;;;;;;20.50;99.90;;;;;;5070133;28;19967;-70
2023/08/25 05:32:42;;;;;;;;;;;20.60;99.90;;;;;;5067701;28;19920;-71
2023/08/25 05:35:07;;;;;;;;;;;20.60;99.90;;;;;;5072299;28;19927;-69
2023/08/25 05:37:33;;;;;;;;;;;20.60;99.90;;;;;;5058355;28;20388;-70
2023/08/25 05:39:59;;;;;;;;;;;20.70;99.90;;;;;;5061456;28;19983;-70
2023/08/25 05:42:26;;;;;;;;;;;20.70;99.90;;;;;;5074558;28;19984;-71
2023/08/25 05:44:52;;;;;;;;;;;20.80;99.90;;;;;;5070031;28;19955;-71
2023/08/25 05:47:17;;;;;;;;;;;20.80;99.90;;;;;;5073065;28;19927;-72
2023/08/25 05:49:43;;;;;;;;;;;20.80;99.90;;;;;;5076341;28;20023;-72
2023/08/25 05:52:08;;;;;;;;;;;20.90;99.90;;;;;;5069377;28;20420;-73
2023/08/25 05:54:34;;;;;;;;;;;20.90;99.90;;;;;;5074141;28;19935;-73
2023/08/25 05:56:59;;;;;;;;;;;20.90;99.90;;;;;;5079541;28;19934;-73
2023/08/25 05:59:25;;;;;;;;;;;21.00;99.90;;;;;;5073931;28;19953;-73
2023/08/25 06:01:50;;;;;;;;;;;21.00;99.90;;;;;;5066828;28;20466;-72
2023/08/25 06:04:16;;;;;;;;;;;21.10;99.90;;;;;;5074173;28;20293;-73
2023/08/25 06:06:41;;;;;;;;;;;21.20;99.90;;;;;;5074636;28;19971;-73
2023/08/25 06:09:08;;;;;;;;;;;21.20;99.90;;;;;;5076851;28;19977;-73
2023/08/25 06:11:34;;;;;;;;;;;21.30;99.90;;;;;;5077487;28;19926;-72
2023/08/25 06:13:59;;;;;;;;;;;21.40;99.90;;;;;;5072727;28;19926;-73
2023/08/25 06:16:26;;;;;;;;;;;21.50;99.90;;;;;;5074347;28;19928;-67
2023/08/25 06:18:52;;;;;;;;;;;21.40;99.90;;;;;;5073034;28;19999;-67
2023/08/25 06:21:17;;;;;;;;;;;21.40;99.90;;;;;;5070401;28;19962;-67
2023/08/25 06:23:43;;;;;;;;;;;21.50;99.90;;;;;;5074283;28;20318;-67
2023/08/25 06:26:09;;;;;;;;;;;21.50;99.90;;;;;;5074866;28;20577;-68
2023/08/25 06:28:35;;;;;;;;;;;21.50;99.90;;;;;;5064244;28;19936;-68
2023/08/25 06:31:01;;;;;;;;;;;21.60;99.90;;;;;;5048875;28;19958;-68
2023/08/25 06:33:29;;;;;;;;;;;21.70;99.90;;;;;;5067084;28;20120;-73
2023/08/25 06:35:56;;;;;;;;;;;21.80;99.90;;;;;;5080444;28;20326;-73
2023/08/25 06:38:22;;;;;;;;;;;21.80;99.90;;;;;;5076134;28;19950;-73
2023/08/25 06:40:48;;;;;;;;;;;21.90;99.90;;;;;;5071345;28;19969;-74
2023/08/25 06:43:13;;;;;;;;;;;22.00;99.90;;;;;;5070717;28;19927;-73
2023/08/25 06:45:39;;;;;;;;;;;22.10;99.90;;;;;;5073527;28;19930;-72
2023/08/25 06:48:07;;;;;;;;;;;22.10;99.90;;;;;;5063030;28;20642;-73
2023/08/25 06:50:32;;;;;;;;;;;22.20;99.90;;;;;;5073412;28;19990;-72
2023/08/25 06:52:58;;;;;;;;;;;22.30;99.90;;;;;;5075676;28;20444;-72
2023/08/25 06:55:25;;;;;;;;;;;22.30;99.90;;;;;;5080472;28;19949;-73
2023/08/25 06:57:51;;;;;;;;;;;22.40;99.90;;;;;;5075271;28;19959;-73
2023/08/25 07:00:17;;;;;;;;;;;22.50;99.90;;;;;;5069084;28;19932;-73
2023/08/25 07:02:44;;;;;;;;;;;22.50;99.90;;;;;;5067649;28;19941;-73
2023/08/25 07:05:10;;;;;;;;;;;22.50;99.90;;;;;;5075871;28;20602;-73
2023/08/25 07:07:36;;;;;;;;;;;22.60;99.90;;;;;;5071496;28;20045;-72
2023/08/25 07:10:02;;;;;;;;;;;22.60;99.90;;;;;;5076709;28;19938;-73
2023/08/25 07:12:27;;;;;;;;;;;22.70;99.90;;;;;;5068664;28;19938;-73
2023/08/25 07:14:53;;;;;;;;;;;22.70;99.90;;;;;;5081629;28;20697;-72
2023/08/25 07:17:18;;;;;;;;;;;22.80;99.90;;;;;;5075121;28;19964;-73
2023/08/25 07:19:45;;;;;;;;;;;22.90;99.90;;;;;;5075446;28;19926;-73
2023/08/25 07:22:10;;;;;;;;;;;23.00;99.90;;;;;;5058434;28;19919;-73
2023/08/25 07:24:35;;;;;;;;;;;23.10;99.90;;;;;;5076481;28;19930;-73
2023/08/25 07:27:01;;;;;;;;;;;23.10;99.90;;;;;;5055664;28;20397;-73
2023/08/25 07:29:27;;;;;;;;;;;23.20;99.90;;;;;;5076296;28;19941;-67
2023/08/25 07:31:52;;;;;;;;;;;23.30;99.90;;;;;;5076152;28;20011;-67
2023/08/25 07:34:18;;;;;;;;;;;23.40;99.90;;;;;;5076892;28;20018;-67
2023/08/25 07:36:44;;;;;;;;;;;23.40;99.90;;;;;;5072540;28;19924;-68
2023/08/25 07:39:10;;;;;;;;;;;23.50;99.90;;;;;;5078507;28;20044;-68
2023/08/25 07:41:35;;;;;;;;;;;23.60;99.90;;;;;;5080032;28;20449;-68
2023/08/25 07:44:02;;;;;;;;;;;23.60;99.90;;;;;;5077674;28;19926;-71
2023/08/25 07:46:27;;;;;;;;;;;23.70;99.90;;;;;;5073424;28;19940;-67
2023/08/25 07:48:53;;;;;;;;;;;23.80;99.90;;;;;;5066400;28;21108;-68
2023/08/25 07:51:18;;;;;;;;;;;23.90;99.90;;;;;;5070557;28;20620;-67
2023/08/25 07:53:44;;;;;;;;;;;23.90;99.90;;;;;;5080176;28;19929;-67
2023/08/25 07:56:09;;;;;;;;;;;24.00;99.90;;;;;;5079128;28;19928;-67
2023/08/25 07:58:35;;;;;;;;;;;24.20;99.90;;;;;;5074973;28;20473;-66
2023/08/25 08:01:02;;;;;;;;;;;24.30;99.90;;;;;;5075419;28;19931;-67
2023/08/25 08:03:28;;;;;;;;;;;24.50;99.90;;;;;;5079696;28;19971;-66
2023/08/25 08:05:54;;;;;;;;;;;24.60;99.90;;;;;;5070007;28;19958;-74
2023/08/25 08:08:19;;;;;;;;;;;24.80;99.90;;;;;;5077186;28;20369;-74
2023/08/25 08:10:45;;;;;;;;;;;24.90;99.90;;;;;;5075496;28;20494;-73
2023/08/25 08:13:10;;;;;;;;;;;25.00;99.90;;;;;;5076474;28;19963;-73
2023/08/25 08:15:36;;;;;;;;;;;25.10;99.90;;;;;;5071163;28;19934;-73
2023/08/25 08:18:01;;;;;;;;;;;25.20;99.90;;;;;;5067633;28;20046;-74
2023/08/25 08:20:27;;;;;;;;;;;25.30;99.90;;;;;;5068775;28;19942;-73
2023/08/25 08:22:53;;;;;;;;;;;25.40;99.90;;;;;;5058781;28;20320;-74
2023/08/25 08:25:19;;;;;;;;;;;25.50;99.90;;;;;;5071442;28;20267;-74
2023/08/25 08:27:45;;;;;;;;;;;25.60;99.90;;;;;;5078999;28;19986;-74
2023/08/25 08:30:11;;;;;;;;;;;25.70;99.90;;;;;;5081314;28;19951;-74
2023/08/25 08:32:37;;;;;;;;;;;25.90;99.90;;;;;;5077943;28;21267;-74
2023/08/25 08:35:07;;;;;;;;;;;25.90;99.90;;;;;;5077515;28;19976;-74
2023/08/25 08:37:33;;;;;;;;;;;26.00;99.90;;;;;;5063401;28;20580;-74
2023/08/25 08:39:58;;;;;;;;;;;26.00;99.90;;;;;;5073218;28;19923;-73
2023/08/25 08:42:24;;;;;;;;;;;26.00;99.90;;;;;;5071754;28;20344;-67
2023/08/25 08:44:50;;;;;;;;;;;26.10;99.90;;;;;;5075110;28;20683;-67
2023/08/25 08:47:16;;;;;;;;;;;26.30;99.90;;;;;;5074631;28;19932;-71
2023/08/25 08:49:43;;;;;;;;;;;26.40;99.90;;;;;;5070655;28;19957;-72
2023/08/25 08:52:09;;;;;;;;;;;26.50;99.90;;;;;;5068707;28;19970;-73
2023/08/25 08:54:35;;;;;;;;;;;26.60;99.90;;;;;;5076272;28;21863;-72
2023/08/25 08:57:01;;;;;;;;;;;26.70;99.90;;;;;;5072138;28;20261;-72
2023/08/25 08:59:26;;;;;;;;;;;26.80;99.90;;;;;;5072277;28;19951;-73
2023/08/25 09:01:53;;;;;;;;;;;26.90;99.90;;;;;;5075335;28;20024;-73
2023/08/25 09:04:18;;;;;;;;;;;26.90;99.90;;;;;;5077332;28;19962;-73
2023/08/25 09:06:45;;;;;;;;;;;27.00;99.90;;;;;;5075944;28;20180;-73
2023/08/25 09:09:12;;;;;;;;;;;27.00;99.90;;;;;;5076771;28;19933;-72
2023/08/25 09:11:38;;;;;;;;;;;27.10;99.90;;;;;;5077022;28;19940;-73
2023/08/25 09:14:07;;;;;;;;;;;27.20;99.90;;;;;;5072178;28;20324;-73
2023/08/25 09:16:35;;;;;;;;;;;27.30;99.90;;;;;;5077338;28;20099;-72
2023/08/25 09:19:01;;;;;;;;;;;27.40;99.90;;;;;;5071445;28;20705;-74
2023/08/25 09:21:27;;;;;;;;;;;27.50;99.90;;;;;;5074838;28;20394;-73
2023/08/25 09:23:58;;;;;;;;;;;27.60;99.90;;;;;;5075557;28;19963;-73
2023/08/25 09:26:24;;;;;;;;;;;27.70;99.90;;;;;;5073704;28;19927;-73
2023/08/25 09:28:53;;;;;;;;;;;27.80;99.90;;;;;;5074514;28;20346;-74
2023/08/25 09:31:19;;;;;;;;;;;27.80;99.90;;;;;;5073671;28;19927;-74
2023/08/25 09:33:45;;;;;;;;;;;27.80;99.90;;;;;;5076641;28;20538;-74
2023/08/25 09:36:10;;;;;;;;;;;27.90;99.90;;;;;;5077616;28;19926;-74
2023/08/25 09:38:36;;;;;;;;;;;28.10;99.90;;;;;;5078648;28;19955;-74
2023/08/25 09:41:01;;;;;;;;;;;28.20;99.90;;;;;;5073131;28;20239;-74
2023/08/25 09:43:33;;;;;;;;;;;28.30;99.90;;;;;;5074773;28;20459;-75
2023/08/25 09:45:58;;;;;;;;;;;28.40;99.90;;;;;;5081636;28;19943;-74
2023/08/25 09:48:27;;;;;;;;;;;28.20;99.90;;;;;;5076431;28;19934;-75
2023/08/25 09:50:52;;;;;;;;;;;28.20;99.90;;;;;;5075145;28;20472;-75
2023/08/25 09:53:18;;;;;;;;;;;28.30;99.90;;;;;;5074170;28;19919;-74
2023/08/25 09:55:44;;;;;;;;;;;28.40;99.90;;;;;;5080626;28;19926;-74
2023/08/25 09:58:12;;;;;;;;;;;28.60;99.90;;;;;;5064732;28;19948;-74
2023/08/25 10:00:38;;;;;;;;;;;28.70;99.90;;;;;;5078441;28;19980;-74
2023/08/25 10:03:04;;;;;;;;;;;28.80;99.90;;;;;;5074616;28;19928;-73
2023/08/25 10:05:31;;;;;;;;;;;28.90;99.90;;;;;;5082628;28;19984;-74
2023/08/25 10:07:57;;;;;;;;;;;29.00;99.90;;;;;;5075061;28;19927;-73
2023/08/25 10:10:24;;;;;;;;;;;29.00;99.90;;;;;;5072277;28;19929;-74
2023/08/25 10:12:50;;;;;;;;;;;29.10;99.90;;;;;;5071527;28;20401;-74
2023/08/25 10:15:17;;;;;;;;;;;29.20;99.90;;;;;;5073586;28;19936;-74
2023/08/25 10:17:44;;;;;;;;;;;29.30;99.90;;;;;;5060369;28;20449;-74
2023/08/25 10:20:13;;;;;;;;;;;29.40;99.90;;;;;;5053592;28;20052;-74
2023/08/25 10:22:40;;;;;;;;;;;29.50;99.90;;;;;;5048649;28;19928;-74
2023/08/25 10:25:07;;;;;;;;;;;29.50;99.90;;;;;;5049029;28;20028;-74
2023/08/25 10:27:32;;;;;;;;;;;29.50;99.90;;;;;;5049781;28;20446;-73
2023/08/25 10:29:59;;;;;;;;;;;29.60;99.90;;;;;;5048779;28;19932;-73
2023/08/25 10:32:44;;;;;;;;;;;29.60;99.90;;;;;;5048468;28;21488;-73
2023/08/25 10:35:09;;;;;;;;;;;29.70;99.90;;;;;;5050804;28;19927;-66
2023/08/25 10:37:37;;;;;;;;;;;29.70;99.90;;;;;;5051835;28;19979;-66
2023/08/25 10:40:08;;;;;;;;;;;29.70;99.90;;;;;;5052327;28;20056;-66
2023/08/25 10:42:35;;;;;;;;;;;29.80;99.90;;;;;;5054257;28;20463;-66
2023/08/25 10:45:01;;;;;;;;;;;29.90;99.90;;;;;;5053954;28;19928;-66
2023/08/25 10:47:27;;;;;;;;;;;30.00;99.90;;;;;;5051614;28;21913;-66
2023/08/25 10:49:53;;;;;;;;;;;30.10;99.90;;;;;;5059717;28;19963;-66
2023/08/25 10:52:19;;;;;;;;;;;30.20;99.90;;;;;;5056784;28;19925;-73
2023/08/25 10:54:45;;;;;;;;;;;30.30;99.90;;;;;;5055733;28;19954;-74
2023/08/25 10:57:17;;;;;;;;;;;30.30;99.90;;;;;;5057181;28;20401;-72
2023/08/25 10:59:45;;;;;;;;;;;30.30;99.90;;;;;;5055566;28;19953;-74
2023/08/25 11:02:11;;;;;;;;;;;30.40;99.90;;;;;;5056609;28;20283;-74
2023/08/25 11:04:37;;;;;;;;;;;30.50;99.90;;;;;;5048226;28;19928;-74
2023/08/25 11:07:03;;;;;;;;;;;30.60;99.90;;;;;;5054574;28;20319;-74
2023/08/25 11:09:32;;;;;;;;;;;30.60;99.90;;;;;;5045919;28;19959;-73
2023/08/25 11:11:59;;;;;;;;;;;30.60;99.90;;;;;;5053662;28;19960;-73
2023/08/25 11:14:28;;;;;;;;;;;30.60;99.90;;;;;;5051014;28;19977;-73
2023/08/25 11:16:55;;;;;;;;;;;30.60;99.90;;;;;;5031445;28;20026;-73
2023/08/25 11:19:20;;;;;;;;;;;30.60;99.90;;;;;;5044403;28;19952;-73
2023/08/25 11:21:55;;;;;;;;;;;30.60;99.90;;;;;;5048944;28;19936;-72
2023/08/25 11:24:22;;;;;;;;;;;30.70;99.90;;;;;;5040378;28;19931;-73
2023/08/25 11:26:47;;;;;;;;;;;30.80;99.90;;;;;;5039598;28;20088;-73
2023/08/25 11:29:12;;;;;;;;;;;30.80;99.90;;;;;;5044765;28;19929;-73
2023/08/25 11:31:38;;;;;;;;;;;30.90;99.90;;;;;;5045739;28;19921;-73
2023/08/25 11:34:04;;;;;;;;;;;30.90;99.90;;;;;;5050647;28;20038;-73
2023/08/25 11:36:29;;;;;;;;;;;30.90;99.90;;;;;;5057346;28;19934;-73
2023/08/25 11:38:55;;;;;;;;;;;30.80;99.90;;;;;;5050230;28;19956;-73
2023/08/25 11:41:21;;;;;;;;;;;30.80;99.90;;;;;;5046267;28;19925;-70
2023/08/25 11:43:48;;;;;;;;;;;31.00;99.90;;;;;;5045571;28;19943;-70
2023/08/25 11:46:14;;;;;;;;;;;31.20;99.90;;;;;;5036842;28;19935;-71
2023/08/25 11:48:39;;;;;;;;;;;31.20;99.90;;;;;;5056409;28;19949;-71
2023/08/25 11:51:05;;;;;;;;;;;31.10;99.90;;;;;;5047527;28;19926;-72
2023/08/25 11:53:31;;;;;;;;;;;31.10;99.90;;;;;;5040836;28;20449;-71
2023/08/25 11:56:00;;;;;;;;;;;31.20;99.90;;;;;;5022663;28;19977;-72
2023/08/25 11:58:30;;;;;;;;;;;31.30;99.90;;;;;;5053832;28;19997;-72
2023/08/25 12:01:06;;;;;;;;;;;31.50;99.90;;;;;;5047998;28;20010;-71
2023/08/25 12:03:33;;;;;;;;;;;31.60;99.90;;;;;;5042707;28;19916;-71
2023/08/25 12:05:59;;;;;;;;;;;31.50;99.90;;;;;;5034855;28;20393;-67
2023/08/25 12:08:25;;;;;;;;;;;31.40;99.90;;;;;;5017077;28;20339;-67
2023/08/25 12:10:53;;;;;;;;;;;31.40;99.90;;;;;;5037024;28;19967;-66
2023/08/25 12:13:31;;;;;;;;;;;31.40;99.90;;;;;;5044058;28;19964;-67
2023/08/25 12:15:57;;;;;;;;;;;31.30;99.90;;;;;;5026889;28;20467;-66
2023/08/25 12:18:23;;;;;;;;;;;31.30;99.90;;;;;;5046821;28;19961;-66
2023/08/25 12:20:49;;;;;;;;;;;31.30;99.90;;;;;;5042587;28;19928;-66
2023/08/25 12:23:15;;;;;;;;;;;31.20;99.90;;;;;;5065734;28;19932;-70
2023/08/25 12:25:42;;;;;;;;;;;31.20;99.90;;;;;;5036036;28;20020;-70
2023/08/25 12:28:08;;;;;;;;;;;31.10;99.90;;;;;;5053020;28;20402;-70
2023/08/25 12:30:34;;;;;;;;;;;31.10;99.90;;;;;;5059039;28;19939;-70
2023/08/25 12:32:59;;;;;;;;;;;31.10;99.90;;;;;;5050614;28;19980;-70
2023/08/25 12:35:25;;;;;;;;;;;31.10;99.90;;;;;;5048647;28;20043;-70
2023/08/25 12:37:51;;;;;;;;;;;31.10;99.90;;;;;;5052429;28;20333;-70
2023/08/25 12:40:20;;;;;;;;;;;31.20;99.90;;;;;;5056676;28;19930;-70
2023/08/25 12:42:51;;;;;;;;;;;31.20;98.30;;;;;;5066666;28;20041;-70
2023/08/25 12:45:17;;;;;;;;;;;31.10;99.50;;;;;;5067781;28;19979;-70
2023/08/25 12:47:43;;;;;;;;;;;31.10;99.60;;;;;;5069757;28;20010;-70
2023/08/25 12:50:08;;;;;;;;;;;31.10;99.90;;;;;;5070937;28;20818;-70
2023/08/25 12:52:36;;;;;;;;;;;31.10;99.90;;;;;;5058420;28;20329;-70
2023/08/25 12:55:02;;;;;;;;;;;31.10;99.90;;;;;;5059998;28;20023;-71
2023/08/25 12:57:27;;;;;;;;;;;31.10;99.90;;;;;;5059356;28;19933;-70
2023/08/25 12:59:53;;;;;;;;;;;31.10;99.90;;;;;;5056952;28;19963;-71
2023/08/25 13:02:18;;;;;;;;;;;31.20;99.90;;;;;;5065722;28;20014;-70
2023/08/25 13:04:44;;;;;;;;;;;31.20;99.90;;;;;;5065680;28;19941;-71
2023/08/25 13:07:10;;;;;;;;;;;31.30;99.90;;;;;;5068652;28;19941;-71
2023/08/25 13:09:35;;;;;;;;;;;31.40;99.90;;;;;;5074754;28;20477;-71
2023/08/25 13:12:01;;;;;;;;;;;31.50;99.90;;;;;;5077943;28;19935;-73
2023/08/25 13:14:26;;;;;;;;;;;31.50;98.50;;;;;;5051189;28;19940;-71
2023/08/25 13:16:52;;;;;;;;;;;31.50;98.70;;;;;;5050638;28;19983;-71
2023/08/25 13:19:18;;;;;;;;;;;31.50;98.40;;;;;;5069681;28;19948;-71
2023/08/25 13:21:43;;;;;;;;;;;31.50;98.30;;;;;;5077027;28;20014;-73
2023/08/25 13:24:09;;;;;;;;;;;31.50;98.90;;;;;;5058901;28;19933;-71
2023/08/25 13:26:35;;;;;;;;;;;31.60;98.70;;;;;;5062018;28;19954;-71
2023/08/25 13:29:01;;;;;;;;;;;31.70;98.50;;;;;;5073557;28;20037;-71
2023/08/25 13:31:28;;;;;;;;;;;31.80;97.70;;;;;;5077598;28;20412;-71
2023/08/25 13:33:54;;;;;;;;;;;31.90;97.20;;;;;;5068920;28;19938;-71
2023/08/25 13:36:21;;;;;;;;;;;31.90;96.60;;;;;;5061276;28;20391;-70
2023/08/25 13:38:46;;;;;;;;;;;32.00;96.10;;;;;;5059798;28;20015;-70
2023/08/25 13:41:12;;;;;;;;;;;32.00;95.50;;;;;;5055001;28;19961;-71
2023/08/25 13:43:39;;;;;;;;;;;31.90;95.90;;;;;;5063044;28;19927;-71
2023/08/25 13:46:05;;;;;;;;;;;31.90;96.60;;;;;;5059486;28;19929;-71
2023/08/25 13:48:31;;;;;;;;;;;32.00;98.50;;;;;;5064516;28;19934;-71
2023/08/25 13:50:56;;;;;;;;;;;32.00;97.30;;;;;;5060931;28;19933;-70
2023/08/25 13:53:22;;;;;;;;;;;32.00;97.10;;;;;;5061520;28;20426;-71
2023/08/25 13:55:47;;;;;;;;;;;32.00;95.80;;;;;;5059280;28;21677;-71
2023/08/25 13:58:13;;;;;;;;;;;32.00;95.90;;;;;;5065115;28;19930;-66
2023/08/25 14:00:38;;;;;;;;;;;31.80;95.30;;;;;;5059605;28;19939;-66
2023/08/25 14:03:04;;;;;;;;;;;31.70;96.80;;;;;;5060599;28;20479;-66
2023/08/25 14:05:30;;;;;;;;;;;31.60;97.40;;;;;;5069165;28;19925;-67
2023/08/25 14:07:55;;;;;;;;;;;31.60;96.30;;;;;;5059140;28;19932;-66
2023/08/25 14:10:21;;;;;;;;;;;31.40;95.80;;;;;;5072154;28;19939;-67